メインページ
METAR-TAF:

METAR-TAF

空港 :

Chetwynd, ブリティッシュコロンビア州, カナダ

緯度: 55-42N, 経度: 121-38W, 海抜: 609m

現時点の気象観測

当レポートは2時間37分前の00:00(UTC)に作成
西/南西の風 5kt
気温 -3°C
湿度 63%
気圧 1008 hPa
視程: 56.3km
高度4500ftの雲はほとんどない
高度13000ftの雲は散在している
高度15000ftの千切れ雲あり
高度19000ftの千切れ雲あり
高度22000ftの曇り

METAR: CYCQ 070000Z 25005KT 35SM FEW045 SCT130 BKN150 BKN190 OVC220 M03/M09 A2976 RMK SC2AC2AC1CI1CI2 VIRGA S-W DIST FU MTS W LAST STFD OBS/NEXT 071400Z SLP122

時間: 19:37 (02:37 UTC)


TAF: 見つかりません

4,000以上の空港の気象観測と天気予報(METAR報とTAF報)

利用可能な観測所は地図上に黄色い丸と赤い丸で示す。

丸の上にカーソルを重ねると観測所名を参照できる。

次にクリックすると気象観測と天気予報を参照できる。

マップの切り替え:黒色「×」印の緑ボタンをクリックして拡大、「-」印の緑ボタンをクリックして縮小、緑色の三角印をクリックして隣りの地図に切り替え


METAR-TAF: